Hauptseite
METAR-TAF:

METAR-TAF

Flughäfen :

RAF Leeming

Leeming, England

Breite: 54-18N, Länge: 001-32W, Höhe: 40 m

Beobachtung

Neuester Wetterbericht von vor 1 Stunde und 3 Minuten, um 02:50 UTC
Wind 15 kt aus West
Temperatur 11°C
Luftfeuchtigkeit 71%
Luftdruck 1028 hPa
Sichtweite 10 km oder mehr

METAR: EGXE 230250Z AUTO 27015KT 9999 OVC130/// 11/06 Q1028

Zeit: 04:53 (03:53 UTC)

Prognose

Neuester Wetterbericht von vor 14 Stunden und 10 Minuten, um 13:43 UTC
Gültige Prognose vom 22 um 15 UTC bis 22 um 18 UTC
Wind 10 kt aus West
Sichtweite 10 km oder mehr
Aufgelockert bewölkt in der Höhe von 3500 ft
Wahrscheinlichkeit 30% :
Zeitweise
vom 22 um 16 UTC bis 22 um 18 UTC
Wind 13 kt aus West, Böen bis zu 23 kt
Aufgelockert bewölkt in der Höhe von 2400 ft

TAF: EGXE 221343Z 2215/2218 26010KT 9999 SCT035 PROB30 TEMPO 2216/2218 26013G23KT SCT024

Wetterbeobachtungen und Prognosen von mehr als 4000 Flughäfen (METAR und TAF Bericht).

Die verfügbaren Stationen werden durch gelbe und rote Markierungen auf der Karte dargestellt.

Führen Sie die Maus auf sie, um den Namen der Station zu sehen.

Darauf klicken, um die Beobachtung von Wetterbeobachtungen und Prognosen zu sehen.

Um die Karte zu ändern : klicken Sie auf den grünen Tasten mit einem schwarzen Kreuz Zum Vergrößern, auf den grünen Button mit einem Gedankenstrich zu verkleinern, oder auf die grünen Pfeile für benachbarte Karten.


METAR-TAF: